< < Back
Terminal Aerodrome Forecast


Current Version              Previous Versions:   1  2  3  4  5  6  7  8  9  

Terminal Aerodrome Forecast

104
FTUS42 KILM 011100
TAFILM
TAF
KILM 011135Z 0112/0212 23005KT P6SM SCT020 SCT080
     FM011600 VRB05KT P6SM VCTS SCT025CB BKN080 BKN250
      TEMPO 0117/0119 3SM TSRA SCT015 BKN025CB
     FM011900 19010KT P6SM FEW030 SCT120 SCT250
     FM020000 22006KT P6SM FEW015 SCT050=

Latest METAR

251
SAUS70 KWBC 012100 RRL
MTRILM
METAR KILM 012053Z AUTO 17011KT 10SM FEW031 32/24 A3005 RMK AO2 LTG DSNT
N AND NW SLP174 T03170244 56010


USA.gov is the U.S. government's official web portal to all federal, state and local government web resources and services.